Progress Software Operating Margin 2006-2021 | PRGS

Current and historical operating margin for Progress Software (PRGS) over the last 10 years. The current operating profit margin for Progress Software as of May 31, 2021 is 28.17%.
Progress Software Operating Margin Historical Data
Date TTM Revenue TTM Operating Income Operating Margin
2021-05-31 $0.48B $0.10B 21.26%
2021-02-28 $0.45B $0.10B 22.96%
2020-11-30 $0.44B $0.11B 24.43%
2020-08-31 $0.44B $0.08B 18.99%
2020-05-31 $0.43B $0.07B 15.21%
2020-02-29 $0.43B $0.06B 12.90%
2019-11-30 $0.41B $0.04B 9.66%
2019-08-31 $0.40B $0.06B 14.43%
2019-05-31 $0.38B $0.06B 15.75%
2019-02-28 $0.37B $0.06B 17.11%
2018-11-30 $0.38B $0.07B 17.94%
2018-08-31 $0.39B $0.07B 18.77%
2018-05-31 $0.39B $0.07B 18.83%
2018-02-28 $0.39B $0.08B 19.08%
2017-11-30 $0.39B $0.06B 14.65%
2017-08-31 $0.40B $-0.02B -5.26%
2017-05-31 $0.40B $-0.03B -6.68%
2017-02-28 $0.41B $-0.04B -8.60%
2016-11-30 $0.41B $-0.03B -7.16%
2016-08-31 $0.40B $0.05B 13.25%
2016-05-31 $0.39B $0.05B 12.21%
2016-02-29 $0.39B $0.03B 8.55%
2015-11-30 $0.38B $0.02B 3.97%
2015-08-31 $0.36B $0.02B 6.06%
2015-05-31 $0.35B $0.03B 9.22%
2015-02-28 $0.34B $0.06B 16.22%
2014-11-30 $0.33B $0.08B 24.02%
2014-08-31 $0.33B $0.08B 23.62%
2014-05-31 $0.33B $0.07B 20.92%
2014-02-28 $0.33B $0.06B 19.02%
2013-11-30 $0.34B $0.06B 19.10%
2013-08-31 $0.33B $0.06B 19.63%
2013-05-31 $0.32B $0.07B 20.19%
2013-02-28 $0.31B $0.06B 20.38%
2012-11-30 $0.32B $0.07B 21.14%
2012-08-31 $0.33B $0.07B 21.58%
2012-05-31 $0.38B $0.07B 19.47%
2012-02-29 $0.44B $0.09B 19.95%
2011-11-30 $0.49B $0.10B 19.88%
2011-08-31 $0.54B $0.10B 18.92%
2011-05-31 $0.54B $0.10B 19.15%
2011-02-28 $0.54B $0.10B 18.66%
2010-11-30 $0.53B $0.07B 12.83%
2010-08-31 $0.52B $0.06B 11.69%
2010-05-31 $0.51B $0.05B 10.55%
2010-02-28 $0.50B $0.04B 8.58%
2009-11-30 $0.49B $0.05B 10.53%
2009-08-31 $0.50B $0.04B 7.06%
2009-05-31 $0.50B $0.04B 8.73%
2009-02-28 $0.52B $0.05B 10.29%
2008-11-30 $0.52B $0.07B 12.60%
2008-08-31 $0.51B $0.08B 15.56%
2008-05-31 $0.51B $0.08B 15.72%
2008-02-29 $0.50B $0.07B 13.97%
2007-11-30 $0.49B $0.07B 13.16%
2007-08-31 $0.48B $0.05B 10.44%
2007-05-31 $0.47B $0.04B 9.40%
2007-02-28 $0.46B $0.04B 9.61%
2006-11-30 $0.45B $0.04B 8.95%
2006-08-31 $0.43B $0.05B 11.09%
2006-05-31 $0.42B $0.05B 11.40%
2006-02-28 $0.41B $0.05B 12.90%
2005-11-30 $0.41B $0.06B 14.57%
Sector Industry Market Cap Revenue
Computer and Technology Computer Software $2.021B $0.442B
Progress offers the leading platform for developing and deploying mission-critical business applications. Progress empowers enterprises and ISVs to build and deliver cognitive-first applications that harness big data to derive business insights and competitive advantage. Progress offers leading technologies for easily building powerful user interfaces across any type of device, a reliable, scalable and secure backend platform to deploy modern applications, leading data connectivity to all sources, and award-winning predictive analytics that brings the power of machine learning to any organization.
Stock Name Country Market Cap PE Ratio
Microsoft (MSFT) United States $2293.695B 38.30
Adobe (ADBE) United States $316.858B 68.29
Salesforce, Inc (CRM) United States $254.892B 76.13
Oracle (ORCL) United States $238.906B 20.63
SAP SE (SAP) Germany $177.961B 22.63
Intuit (INTU) United States $156.449B 76.38
Dassault Systemes SA (DASTY) France $79.473B 69.78
Autodesk (ADSK) United States $63.906B 106.87
VMware (VMW) United States $58.579B 27.54
Synopsys (SNPS) United States $51.146B 69.87
Cadence Design Systems (CDNS) United States $46.391B 64.96
ANSYS (ANSS) United States $32.676B 65.70
SS&C Technologies Holdings (SSNC) United States $18.141B 16.26
Nuance Communications (NUAN) United States $17.377B 153.47
PTC (PTC) United States $14.731B 51.43
Open Text (OTEX) Canada $14.256B 16.24
Citrix Systems (CTXS) United States $13.784B 32.44
Pegasystems (PEGA) United States $10.749B 0.00
Manhattan Associates (MANH) United States $10.124B 107.89
Aspen Technology (AZPN) United States $8.597B 38.15
Trend Micro (TMICY) Japan $8.141B 30.45
Descartes Systems Group (DSGX) Canada $6.970B 99.24
MicroStrategy (MSTR) United States $6.170B 114.47
BlackBerry (BB) Canada $5.761B 254.00
Cornerstone OnDemand (CSOD) United States $3.820B 22.18
ACI Worldwide (ACIW) United States $3.744B 21.83
CommVault Systems (CVLT) United States $3.594B 93.29
Blackbaud (BLKB) United States $3.321B 56.61
Verint Systems (VRNT) United States $2.928B 21.22
Bottomline Technologies (EPAY) United States $1.861B 177.30
QAD (QADB) United States $1.828B 120.83
PROS Holdings (PRO) United States $1.762B 0.00
Sapiens (SPNS) Israel $1.544B 27.64
Canaan (CAN) China $1.227B 0.00
OptimizeRx (OPRX) United States $1.225B 631.91
Avid Technology (AVID) United States $1.204B 30.00
Magic Software Enterprises (MGIC) Israel $1.022B 24.81
Simulations Plus (SLP) United States $0.888B 77.39
American Software (AMSWA) United States $0.835B 89.57
Icad Inc (ICAD) United States $0.259B 0.00
Smith Micro Software (SMSI) United States $0.253B 0.00
ServiceSource (SREV) United States $0.134B 0.00
Park City (PCYG) United States $0.103B 48.27
Neonode (NEON) Sweden $0.067B 0.00
BSQUARE (BSQR) United States $0.050B 0.00
NetSol Technologies (NTWK) United States $0.044B 17.73
GSE Systems (GVP) United States $0.028B 0.00